createdAt,value
2022-10-20T00:01:19.555Z,89.73
2022-10-20T00:03:47.354Z,90.03
2022-10-20T00:06:21.308Z,89.83
2022-10-20T00:08:48.925Z,89.45
2022-10-20T00:11:19.579Z,89.52
2022-10-20T00:13:49.294Z,89.34
2022-10-20T00:16:16.694Z,89.47
2022-10-20T00:18:44.630Z,89.57
2022-10-20T00:21:19.629Z,89.69
2022-10-20T00:23:47.086Z,89.10
2022-10-20T00:26:16.995Z,89.33
2022-10-20T00:28:45.319Z,89.02
2022-10-20T00:31:13.022Z,89.47
2022-10-20T00:33:40.200Z,89.32
2022-10-20T00:36:11.424Z,88.97
2022-10-20T00:38:38.368Z,89.44
2022-10-20T00:41:06.074Z,89.17
2022-10-20T00:43:55.487Z,89.09
2022-10-20T00:46:41.828Z,89.38
2022-10-20T00:49:20.421Z,89.36
2022-10-20T00:51:48.269Z,89.06
2022-10-20T00:54:22.495Z,89.32
2022-10-20T00:56:51.246Z,88.92
2022-10-20T00:59:22.938Z,88.87
2022-10-20T01:01:50.240Z,89.06
2022-10-20T01:04:18.585Z,89.14
2022-10-20T01:06:45.732Z,88.75
2022-10-20T01:09:13.033Z,88.76
2022-10-20T01:12:21.827Z,88.56
2022-10-20T01:15:20.315Z,88.61
2022-10-20T01:18:14.321Z,89.05
2022-10-20T01:21:14.317Z,88.86
2022-10-20T01:24:17.796Z,88.82
2022-10-20T01:27:16.083Z,88.93
2022-10-20T01:30:05.581Z,88.93
2022-10-20T01:32:57.011Z,88.75
2022-10-20T01:35:44.389Z,88.68
2022-10-20T01:38:36.505Z,89.05
2022-10-20T01:41:23.197Z,88.87
2022-10-20T01:43:51.373Z,89.03
2022-10-20T01:46:21.656Z,88.67
2022-10-20T01:48:50.091Z,88.85
2022-10-20T01:51:17.131Z,88.90
2022-10-20T01:53:44.148Z,89.01
2022-10-20T01:56:26.710Z,89.11
2022-10-20T01:59:32.946Z,88.87
2022-10-20T02:02:41.770Z,88.77
2022-10-20T02:05:45.638Z,88.92
2022-10-20T02:08:49.352Z,88.78
2022-10-20T02:11:55.009Z,88.85
2022-10-20T02:14:23.405Z,88.79
2022-10-20T02:16:57.873Z,89.02
2022-10-20T02:19:32.181Z,88.66
2022-10-20T02:22:00.142Z,88.94
2022-10-20T02:24:33.994Z,89.05
2022-10-20T02:27:08.194Z,88.85
2022-10-20T02:29:43.162Z,88.53
2022-10-20T02:32:12.433Z,89.00
2022-10-20T02:34:42.384Z,88.41
2022-10-20T02:37:09.898Z,88.49
2022-10-20T02:39:36.876Z,88.45
2022-10-20T02:42:03.846Z,88.21
2022-10-20T02:44:30.852Z,88.61
2022-10-20T02:46:57.780Z,88.50
2022-10-20T02:49:25.199Z,88.84
2022-10-20T02:51:52.235Z,88.53
2022-10-20T02:54:19.345Z,88.72
2022-10-20T02:56:46.583Z,88.75
2022-10-20T02:59:16.821Z,88.28
2022-10-20T03:01:44.462Z,88.45
2022-10-20T03:04:12.076Z,88.99
2022-10-20T03:06:40.618Z,88.28
2022-10-20T03:09:07.647Z,88.58
2022-10-20T03:11:34.681Z,88.68
2022-10-20T03:14:01.696Z,88.42
2022-10-20T03:16:28.666Z,88.59
2022-10-20T03:18:59.924Z,88.70
2022-10-20T03:21:30.397Z,88.48
2022-10-20T03:23:57.337Z,88.43
2022-10-20T03:26:24.327Z,88.47
2022-10-20T03:28:51.407Z,88.57
2022-10-20T03:31:18.478Z,88.19
2022-10-20T03:33:45.399Z,88.30
2022-10-20T03:36:12.427Z,88.32
2022-10-20T03:38:43.083Z,88.14
2022-10-20T03:41:10.990Z,88.17
2022-10-20T03:43:41.708Z,88.19
2022-10-20T03:46:11.558Z,88.30
2022-10-20T03:48:39.871Z,88.12
2022-10-20T03:51:09.428Z,88.04
2022-10-20T03:53:36.362Z,88.00
2022-10-20T03:56:14.327Z,87.78
2022-10-20T03:58:41.262Z,87.92
2022-10-20T04:01:13.197Z,87.93
2022-10-20T04:03:40.156Z,87.73
2022-10-20T04:06:07.167Z,87.66
2022-10-20T04:08:34.183Z,87.97
2022-10-20T04:11:01.149Z,87.99
2022-10-20T04:13:28.096Z,87.86
2022-10-20T04:15:55.126Z,88.09
2022-10-20T04:18:22.102Z,87.92
2022-10-20T04:20:49.317Z,88.08
2022-10-20T04:23:16.273Z,88.17
2022-10-20T04:25:48.484Z,88.20
2022-10-20T04:28:18.193Z,87.71
2022-10-20T04:30:45.923Z,88.08
2022-10-20T04:33:13.860Z,88.15
2022-10-20T04:35:41.353Z,88.07
2022-10-20T04:38:08.864Z,87.90
2022-10-20T04:40:35.882Z,87.98
2022-10-20T04:43:02.932Z,87.82
2022-10-20T04:45:29.943Z,87.88
2022-10-20T04:47:56.878Z,88.12
2022-10-20T04:50:23.834Z,88.03
2022-10-20T04:53:07.834Z,88.25
2022-10-20T04:55:35.986Z,88.36
2022-10-20T04:58:03.080Z,88.32
2022-10-20T05:00:30.032Z,88.63
2022-10-20T05:02:57.038Z,88.53
2022-10-20T05:05:24.044Z,88.24
2022-10-20T05:07:51.020Z,88.44
2022-10-20T05:10:19.307Z,88.91
2022-10-20T05:12:46.225Z,89.10
2022-10-20T05:15:13.181Z,88.58
2022-10-20T05:17:40.126Z,89.05
2022-10-20T05:20:07.621Z,89.05
2022-10-20T05:22:34.821Z,89.27
2022-10-20T05:25:24.445Z,89.48
2022-10-20T05:27:48.915Z,89.53
2022-10-20T05:30:15.930Z,89.79
2022-10-20T05:32:42.872Z,89.39
2022-10-20T05:35:09.898Z,89.68
2022-10-20T05:37:36.843Z,89.71
2022-10-20T05:40:06.523Z,89.89
2022-10-20T05:42:33.834Z,90.16
2022-10-20T05:45:01.025Z,89.99
2022-10-20T05:47:28.000Z,90.29
2022-10-20T05:49:54.925Z,90.27
2022-10-20T05:52:22.215Z,90.27
2022-10-20T05:54:49.158Z,90.68
2022-10-20T05:57:16.081Z,90.90
2022-10-20T05:59:42.982Z,90.78
2022-10-20T06:02:12.010Z,90.91
2022-10-20T06:04:39.039Z,91.12
2022-10-20T06:07:06.226Z,90.92
2022-10-20T06:09:33.287Z,91.24
2022-10-20T06:12:00.321Z,91.75
2022-10-20T06:14:27.385Z,91.54
2022-10-20T06:16:55.606Z,92.06
2022-10-20T06:19:23.980Z,91.39
2022-10-20T06:21:51.965Z,91.63
2022-10-20T06:24:19.662Z,91.82
2022-10-20T06:26:46.707Z,92.02
2022-10-20T06:29:17.326Z,91.60
2022-10-20T06:31:48.105Z,91.90
2022-10-20T06:34:21.603Z,91.88
2022-10-20T06:36:49.752Z,92.40
2022-10-20T06:39:22.854Z,92.70
2022-10-20T06:41:54.576Z,92.53
2022-10-20T06:44:24.396Z,92.42
2022-10-20T06:46:55.145Z,92.08
2022-10-20T06:49:23.459Z,92.24
2022-10-20T06:51:50.752Z,92.78
2022-10-20T06:54:18.032Z,92.75
2022-10-20T06:56:45.021Z,92.88
2022-10-20T06:59:12.075Z,92.53
2022-10-20T07:01:39.780Z,92.14
2022-10-20T07:04:11.566Z,92.79
2022-10-20T07:06:42.099Z,92.54
2022-10-20T07:09:14.345Z,92.55
2022-10-20T07:11:42.221Z,92.79
2022-10-20T07:14:13.540Z,92.31
2022-10-20T07:16:40.729Z,92.93
2022-10-20T07:19:07.798Z,92.43
2022-10-20T07:21:39.150Z,92.97
2022-10-20T07:24:09.708Z,92.89
2022-10-20T07:26:40.191Z,93.17
2022-10-20T07:29:07.305Z,93.26
2022-10-20T07:31:46.053Z,93.20
2022-10-20T07:34:25.219Z,93.49
2022-10-20T07:36:54.829Z,93.12
2022-10-20T07:39:21.849Z,93.04
2022-10-20T07:41:48.909Z,92.78
2022-10-20T07:44:16.709Z,92.71
2022-10-20T07:46:44.268Z,93.26
2022-10-20T07:51:58.665Z,93.32
2022-10-20T07:54:25.763Z,93.13
2022-10-20T07:56:53.020Z,93.14
2022-10-20T07:59:20.137Z,93.00
2022-10-20T08:01:47.471Z,93.35
2022-10-20T08:04:14.470Z,93.21
2022-10-20T08:06:41.472Z,92.98
2022-10-20T08:09:08.655Z,92.90
2022-10-20T08:11:36.219Z,92.91
2022-10-20T08:14:03.666Z,92.53
2022-10-20T08:16:33.728Z,92.74
2022-10-20T08:19:16.350Z,92.81
2022-10-20T08:21:43.445Z,93.01
2022-10-20T08:24:10.723Z,92.73
2022-10-20T08:26:37.696Z,92.76
2022-10-20T08:29:04.731Z,93.04
2022-10-20T08:31:31.659Z,92.68
2022-10-20T08:33:59.692Z,92.52
2022-10-20T08:36:28.184Z,92.62
2022-10-20T08:38:56.317Z,92.43
2022-10-20T08:41:38.749Z,92.23
2022-10-20T08:44:27.869Z,91.97
2022-10-20T08:46:55.173Z,92.10
2022-10-20T08:49:27.108Z,92.30
2022-10-20T08:51:54.313Z,92.26
2022-10-20T08:54:21.628Z,92.25
2022-10-20T08:56:48.803Z,92.19
2022-10-20T08:59:39.790Z,92.43
2022-10-20T09:02:17.282Z,92.23
2022-10-20T09:04:58.378Z,92.10
2022-10-20T09:07:35.042Z,91.66
2022-10-20T09:10:35.168Z,91.19
2022-10-20T09:13:17.574Z,90.64
2022-10-20T09:15:44.657Z,90.58
2022-10-20T09:18:13.945Z,90.49
2022-10-20T09:21:07.887Z,89.10
2022-10-20T09:23:45.093Z,89.71
2022-10-20T09:26:30.941Z,90.39
2022-10-20T09:29:15.191Z,90.27
2022-10-20T09:31:54.320Z,89.90
2022-10-20T09:34:27.510Z,90.35
2022-10-20T09:37:09.378Z,90.97
2022-10-20T09:39:58.271Z,90.71
2022-10-20T09:42:35.850Z,90.52
2022-10-20T09:45:28.884Z,90.37
2022-10-20T09:48:31.773Z,90.95
2022-10-20T09:51:00.247Z,90.96
2022-10-20T09:53:46.777Z,90.46
2022-10-20T09:56:42.340Z,90.98
2022-10-20T09:59:32.912Z,89.39
2022-10-20T10:02:29.233Z,88.82
2022-10-20T10:05:19.813Z,89.90
2022-10-20T10:07:59.585Z,88.71
2022-10-20T10:10:31.970Z,89.44
2022-10-20T10:13:01.107Z,88.63
2022-10-20T10:15:31.421Z,88.47
2022-10-20T10:17:59.709Z,88.49
2022-10-20T10:20:37.987Z,88.24
2022-10-20T10:23:28.825Z,87.92
2022-10-20T10:25:59.269Z,88.41
2022-10-20T10:28:38.423Z,87.67
2022-10-20T10:31:26.298Z,87.92
2022-10-20T10:34:12.473Z,88.57
2022-10-20T10:36:39.600Z,88.53
2022-10-20T10:39:14.110Z,88.60
2022-10-20T10:42:16.298Z,87.78
2022-10-20T10:45:19.490Z,87.47
2022-10-20T10:48:35.732Z,87.65
2022-10-20T10:51:17.692Z,87.53
2022-10-20T10:54:10.832Z,87.74
2022-10-20T10:56:50.558Z,88.02
2022-10-20T10:59:29.297Z,87.02
2022-10-20T11:02:26.571Z,86.92
2022-10-20T11:05:46.584Z,87.98
2022-10-20T11:08:38.370Z,87.75
2022-10-20T11:11:46.597Z,87.53
2022-10-20T11:14:16.099Z,87.85
2022-10-20T11:17:29.947Z,87.35
2022-10-20T11:20:21.667Z,87.41
2022-10-20T11:23:18.261Z,87.54
2022-10-20T11:26:18.453Z,87.74
2022-10-20T11:28:51.999Z,87.86
2022-10-20T11:31:41.933Z,88.13
2022-10-20T11:34:30.694Z,88.80
2022-10-20T11:37:17.594Z,88.43
2022-10-20T11:40:08.809Z,88.17
2022-10-20T11:42:57.356Z,88.77
2022-10-20T11:45:43.038Z,88.62
2022-10-20T11:48:37.098Z,88.52
2022-10-20T11:51:14.760Z,88.95
2022-10-20T11:54:24.528Z,88.67
2022-10-20T11:57:02.435Z,88.86
2022-10-20T12:03:18.719Z,89.11
2022-10-20T12:06:12.379Z,88.92
2022-10-20T12:09:16.740Z,89.08
2022-10-20T12:12:06.055Z,89.01
2022-10-20T12:14:44.121Z,88.94
2022-10-20T12:17:26.278Z,89.29
2022-10-20T12:20:22.171Z,89.14
2022-10-20T12:22:52.330Z,88.94
2022-10-20T12:25:38.222Z,89.42
2022-10-20T12:28:20.427Z,89.00
2022-10-20T12:30:54.417Z,89.29
2022-10-20T12:33:36.815Z,89.21
2022-10-20T12:36:17.564Z,89.32
2022-10-20T12:38:52.944Z,89.35
2022-10-20T12:41:30.338Z,89.22
2022-10-20T12:44:15.316Z,89.02
2022-10-20T12:46:53.495Z,89.35
2022-10-20T12:49:41.988Z,89.78
2022-10-20T12:52:21.001Z,89.45
2022-10-20T12:54:58.944Z,89.67
2022-10-20T12:57:41.540Z,89.50
2022-10-20T13:00:28.644Z,89.54
2022-10-20T13:03:00.173Z,89.65
2022-10-20T13:05:47.990Z,89.75
2022-10-20T13:08:20.995Z,89.60
2022-10-20T13:10:49.287Z,89.81
2022-10-20T13:13:19.161Z,89.90
2022-10-20T13:15:53.882Z,89.91
2022-10-20T13:18:38.469Z,89.41
2022-10-20T13:21:32.979Z,89.81
2022-10-20T13:24:13.498Z,89.38
2022-10-20T13:26:43.355Z,89.73
2022-10-20T13:29:25.119Z,89.84
2022-10-20T13:32:13.324Z,89.96
2022-10-20T13:34:52.708Z,90.21
2022-10-20T13:37:48.253Z,90.01
2022-10-20T13:40:50.777Z,89.87
2022-10-20T13:43:57.869Z,90.08
2022-10-20T13:46:41.377Z,90.28
2022-10-20T13:49:29.917Z,89.91
2022-10-20T13:52:04.287Z,89.74
2022-10-20T13:54:35.829Z,90.25
2022-10-20T13:57:03.581Z,90.07
2022-10-20T13:59:31.611Z,90.18
2022-10-20T14:02:20.754Z,90.01
2022-10-20T14:04:47.686Z,90.06
2022-10-20T14:07:15.973Z,90.04
2022-10-20T14:09:46.648Z,90.28
2022-10-20T14:12:25.490Z,89.89
2022-10-20T14:15:01.483Z,89.99
2022-10-20T14:17:29.231Z,89.77
2022-10-20T14:20:33.851Z,90.15
2022-10-20T14:23:03.339Z,90.25
2022-10-20T14:25:32.302Z,90.06
2022-10-20T14:28:02.781Z,90.44
2022-10-20T14:30:33.382Z,90.21
2022-10-20T14:33:02.696Z,89.95
2022-10-20T14:35:45.064Z,89.67
2022-10-20T14:38:37.813Z,89.96
2022-10-20T14:41:08.278Z,89.96
2022-10-20T14:43:46.131Z,90.02
2022-10-20T14:46:33.678Z,90.30
2022-10-20T14:49:01.702Z,90.32
2022-10-20T14:51:29.344Z,90.01
2022-10-20T14:54:14.952Z,90.08
2022-10-20T14:56:50.329Z,90.25
2022-10-20T14:59:21.805Z,90.02
2022-10-20T15:02:12.340Z,89.96
2022-10-20T15:04:43.521Z,90.05
2022-10-20T15:07:23.571Z,89.98
2022-10-20T15:10:04.961Z,89.68
2022-10-20T15:12:36.406Z,89.92
2022-10-20T15:15:20.396Z,89.89
2022-10-20T15:18:15.708Z,90.21
2022-10-20T15:20:45.261Z,90.02
2022-10-20T15:23:28.873Z,90.32
2022-10-20T15:26:12.747Z,89.97
2022-10-20T15:28:50.601Z,90.10
2022-10-20T15:31:28.250Z,90.08
2022-10-20T15:33:58.035Z,89.99
2022-10-20T15:36:40.245Z,90.33
2022-10-20T15:39:09.276Z,89.86
2022-10-20T15:41:36.954Z,89.84
2022-10-20T15:44:24.361Z,89.71
2022-10-20T15:46:55.661Z,89.88
2022-10-20T15:49:23.755Z,89.99
2022-10-20T15:51:50.858Z,90.19
2022-10-20T15:54:21.302Z,89.84
2022-10-20T15:56:48.541Z,89.94
2022-10-20T15:59:15.444Z,89.84
2022-10-20T16:01:42.407Z,89.74
2022-10-20T16:04:19.252Z,89.68
2022-10-20T16:06:47.030Z,90.05
2022-10-20T16:09:16.040Z,89.69
2022-10-20T16:11:44.112Z,90.04
2022-10-20T16:14:12.085Z,89.93
2022-10-20T16:16:39.393Z,89.83
2022-10-20T16:19:06.310Z,89.90
2022-10-20T16:21:34.270Z,90.16
2022-10-20T16:24:01.527Z,90.49
2022-10-20T16:26:28.663Z,90.22
2022-10-20T16:28:55.779Z,90.69
2022-10-20T16:31:22.888Z,89.85
2022-10-20T16:33:49.822Z,89.97
2022-10-20T16:36:18.225Z,90.47
2022-10-20T16:38:45.256Z,91.17
2022-10-20T16:41:14.916Z,90.92
2022-10-20T16:43:45.615Z,90.78
2022-10-20T16:46:14.411Z,91.42
2022-10-20T16:48:42.708Z,91.55
2022-10-20T16:51:12.976Z,92.12
2022-10-20T16:53:40.023Z,92.12
2022-10-20T16:56:08.135Z,91.98
2022-10-20T16:58:35.460Z,92.44
2022-10-20T17:01:06.307Z,92.77
2022-10-20T17:03:33.402Z,92.36
2022-10-20T17:06:06.592Z,92.09
2022-10-20T17:08:35.946Z,92.83
2022-10-20T17:11:16.620Z,93.09
2022-10-20T17:13:43.858Z,93.09
2022-10-20T17:16:35.101Z,93.96
2022-10-20T17:19:03.225Z,93.99
2022-10-20T17:21:32.271Z,93.69
2022-10-20T17:23:59.906Z,94.28
2022-10-20T17:26:32.571Z,94.20
2022-10-20T17:29:01.609Z,94.60
2022-10-20T17:31:29.818Z,94.67
2022-10-20T17:33:59.135Z,95.17
2022-10-20T17:36:26.992Z,94.53
2022-10-20T17:39:03.271Z,94.62
2022-10-20T17:41:31.704Z,95.43
2022-10-20T17:44:04.596Z,95.58
2022-10-20T17:46:33.299Z,95.47
2022-10-20T17:49:03.267Z,95.19
2022-10-20T17:51:33.703Z,96.12
2022-10-20T17:54:03.467Z,96.04
2022-10-20T17:56:35.327Z,96.68
2022-10-20T17:59:05.286Z,96.54
2022-10-20T18:01:36.614Z,96.44
2022-10-20T18:04:14.559Z,96.72
2022-10-20T18:06:43.942Z,96.50
2022-10-20T18:09:17.903Z,96.50
2022-10-20T18:11:51.246Z,96.19
2022-10-20T18:14:18.907Z,96.67
2022-10-20T18:16:46.690Z,96.47
2022-10-20T18:19:17.568Z,96.31
2022-10-20T18:21:45.414Z,96.74
2022-10-20T18:24:14.929Z,97.06
2022-10-20T18:26:42.835Z,97.58
2022-10-20T18:29:11.052Z,97.45
2022-10-20T18:31:41.309Z,97.32
2022-10-20T18:34:17.066Z,97.58
2022-10-20T18:36:45.902Z,97.87
2022-10-20T18:39:14.089Z,97.30
2022-10-20T18:41:43.077Z,97.41
2022-10-20T18:44:18.869Z,97.87
2022-10-20T18:46:49.343Z,97.46
2022-10-20T18:49:21.548Z,97.78
2022-10-20T18:51:49.823Z,98.30
2022-10-20T18:54:18.260Z,98.35
2022-10-20T18:56:45.696Z,98.76
2022-10-20T18:59:16.158Z,98.77
2022-10-20T19:01:43.782Z,99.24
2022-10-20T19:04:12.256Z,99.60
2022-10-20T19:06:45.554Z,99.75
2022-10-20T19:09:16.930Z,99.40
2022-10-20T19:11:44.977Z,100.00
2022-10-20T19:14:13.434Z,99.43
2022-10-20T19:16:45.701Z,100.00
2022-10-20T19:19:13.363Z,100.00
2022-10-20T19:21:40.478Z,100.00
2022-10-20T19:24:22.111Z,100.00
2022-10-20T19:27:24.604Z,100.00
2022-10-20T19:29:44.779Z,100.00
2022-10-20T19:32:12.079Z,100.00
2022-10-20T19:34:40.829Z,100.00
2022-10-20T19:37:09.082Z,100.00
2022-10-20T19:39:39.558Z,100.00
2022-10-20T19:42:10.119Z,100.00
2022-10-20T19:44:37.909Z,100.00
2022-10-20T19:47:05.632Z,100.00
2022-10-20T19:49:32.780Z,100.00
2022-10-20T19:52:00.233Z,100.00
2022-10-20T19:54:27.466Z,100.00
2022-10-20T19:56:54.424Z,100.00
2022-10-20T19:59:21.501Z,100.00
2022-10-20T20:01:49.882Z,100.00
2022-10-20T20:04:17.004Z,100.00
2022-10-20T20:06:44.094Z,100.00
2022-10-20T20:09:15.322Z,100.00
2022-10-20T20:11:43.243Z,100.00
2022-10-20T20:14:15.708Z,100.00
2022-10-20T20:19:12.241Z,100.00
2022-10-20T20:21:39.436Z,100.00
2022-10-20T20:24:06.791Z,100.00
2022-10-20T20:26:36.864Z,100.00
2022-10-20T20:29:05.074Z,100.00
2022-10-20T20:31:33.169Z,100.00
2022-10-20T20:34:00.128Z,100.00
2022-10-20T20:36:28.181Z,100.00
2022-10-20T20:38:59.267Z,100.00
2022-10-20T20:41:28.554Z,100.00
2022-10-20T20:43:55.884Z,100.00
2022-10-20T20:46:26.770Z,100.00
2022-10-20T20:48:54.139Z,100.00
2022-10-20T20:51:21.329Z,100.00
2022-10-20T20:53:48.346Z,100.00
2022-10-20T20:56:19.621Z,100.00
2022-10-20T20:58:49.009Z,100.00
2022-10-20T21:01:23.383Z,100.00
2022-10-20T21:03:59.222Z,100.00
2022-10-20T21:07:00.137Z,100.00
2022-10-20T21:09:14.473Z,100.00
2022-10-20T21:11:43.026Z,100.00
2022-10-20T21:14:10.003Z,100.00
2022-10-20T21:16:37.859Z,100.00
2022-10-20T21:19:12.002Z,100.00
2022-10-20T21:21:50.582Z,100.00
2022-10-20T21:24:18.558Z,100.00
2022-10-20T21:26:45.580Z,100.00
2022-10-20T21:29:12.577Z,100.00
2022-10-20T21:31:40.473Z,100.00
2022-10-20T21:34:07.485Z,100.00
2022-10-20T21:36:36.075Z,100.00
2022-10-20T21:39:06.987Z,100.00
2022-10-20T21:41:35.621Z,100.00
2022-10-20T21:44:05.787Z,100.00
2022-10-20T21:46:44.905Z,100.00
2022-10-20T21:49:15.972Z,100.00
2022-10-20T21:51:48.886Z,100.00
2022-10-20T21:54:25.788Z,100.00
2022-10-20T21:56:54.037Z,100.00
2022-10-20T21:59:30.536Z,100.00
2022-10-20T22:02:00.829Z,100.00
2022-10-20T22:04:30.024Z,100.00
2022-10-20T22:06:59.184Z,100.00
2022-10-20T22:09:26.339Z,100.00
2022-10-20T22:11:55.911Z,100.00
2022-10-20T22:14:23.375Z,100.00
2022-10-20T22:16:50.631Z,100.00
2022-10-20T22:19:22.119Z,100.00
2022-10-20T22:21:51.589Z,100.00
2022-10-20T22:24:20.384Z,100.00
2022-10-20T22:26:50.727Z,100.00
2022-10-20T22:29:19.158Z,100.00
2022-10-20T22:31:46.535Z,100.00
2022-10-20T22:34:14.212Z,100.00
2022-10-20T22:36:41.398Z,100.00
2022-10-20T22:39:08.942Z,100.00
2022-10-20T22:41:36.490Z,100.00
2022-10-20T22:44:03.808Z,100.00
2022-10-20T22:46:30.819Z,100.00
2022-10-20T22:51:25.849Z,100.00
2022-10-20T22:53:52.788Z,100.00
2022-10-20T22:56:22.322Z,100.00
2022-10-20T22:58:51.901Z,100.00
2022-10-20T23:01:21.844Z,100.00
2022-10-20T23:03:49.270Z,100.00
2022-10-20T23:06:21.068Z,100.00
2022-10-20T23:08:51.794Z,100.00
2022-10-20T23:11:19.892Z,100.00
2022-10-20T23:13:47.315Z,100.00
2022-10-20T23:16:15.506Z,100.00
2022-10-20T23:18:42.692Z,100.00
2022-10-20T23:21:09.908Z,100.00
2022-10-20T23:23:38.087Z,100.00
2022-10-20T23:26:06.815Z,100.00
2022-10-20T23:28:35.275Z,100.00
2022-10-20T23:31:15.172Z,100.00
2022-10-20T23:33:44.793Z,100.00
2022-10-20T23:36:13.586Z,100.00
2022-10-20T23:38:41.882Z,100.00
2022-10-20T23:41:09.697Z,100.00
2022-10-20T23:46:09.033Z,100.00
2022-10-20T23:48:36.205Z,100.00
2022-10-20T23:51:03.305Z,100.00
2022-10-20T23:53:30.803Z,100.00
2022-10-20T23:55:57.729Z,100.00
2022-10-20T23:58:24.961Z,100.00
